Aurora Center, South Dakota
Current Conditions -  °F | °C
As of 10:53 PM on Wednesday 26 Nov 2014 (Local Time) from KMHE Reporting Station
Overcast Overcast  
Wind Chill: -20°   Ceiling: 6500
Heat Index: -13°   Visibility: 10mi
Dew Point: -16°   Wind: 9mph
Humidity: 77%   Direction: 10°N
Pressure: 30.5"   Gusts: NA
Location:  43.5853°N, 98.5581°W
Report Text: KMHE 270453Z AUTO 01008KT 10SM OVC065 M13/M16 A3050 RMK AO2 SLP355 T11281161
Loading
Personal Weather Stations






























Interactive Weather Map New forecast layout! Learn more

10-Day Weather Forecast

Advertisements
Track Severe Weather on mobile